createdAt,value
2023-01-17T00:00:08.530Z,940.07
2023-01-17T00:02:34.765Z,939.77
2023-01-17T00:05:01.220Z,939.99
2023-01-17T00:07:27.617Z,939.99
2023-01-17T00:09:54.001Z,939.73
2023-01-17T00:12:20.331Z,939.76
2023-01-17T00:14:46.674Z,939.92
2023-01-17T00:17:12.996Z,939.66
2023-01-17T00:19:39.384Z,939.79
2023-01-17T00:22:05.784Z,939.85
2023-01-17T00:24:32.236Z,939.85
2023-01-17T00:26:58.636Z,939.72
2023-01-17T00:29:24.946Z,939.90
2023-01-17T00:31:51.268Z,939.86
2023-01-17T00:34:17.627Z,940.05
2023-01-17T00:36:44.015Z,939.66
2023-01-17T00:39:10.335Z,939.81
2023-01-17T00:41:36.689Z,939.82
2023-01-17T00:44:03.128Z,939.71
2023-01-17T00:46:29.446Z,939.75
2023-01-17T00:48:55.837Z,939.82
2023-01-17T00:51:22.306Z,939.99
2023-01-17T00:53:48.656Z,939.91
2023-01-17T00:56:15.005Z,939.87
2023-01-17T00:58:41.321Z,939.99
2023-01-17T01:01:07.840Z,939.59
2023-01-17T01:03:34.158Z,939.90
2023-01-17T01:06:00.502Z,940.05
2023-01-17T01:08:26.819Z,939.93
2023-01-17T01:10:53.250Z,940.15
2023-01-17T01:13:19.693Z,940.14
2023-01-17T01:15:46.041Z,940.08
2023-01-17T01:18:12.413Z,940.02
2023-01-17T01:20:38.742Z,940.30
2023-01-17T01:23:05.105Z,939.70
2023-01-17T01:25:31.463Z,940.01
2023-01-17T01:27:57.896Z,939.91
2023-01-17T01:30:24.265Z,939.67
2023-01-17T01:32:50.567Z,939.82
2023-01-17T01:35:16.968Z,939.39
2023-01-17T01:37:43.348Z,939.52
2023-01-17T01:40:09.749Z,939.67
2023-01-17T01:42:36.184Z,939.32
2023-01-17T01:45:02.546Z,939.43
2023-01-17T01:47:28.952Z,939.49
2023-01-17T01:49:55.660Z,939.34
2023-01-17T01:52:22.056Z,939.15
2023-01-17T01:54:48.402Z,939.31
2023-01-17T01:57:14.799Z,939.07
2023-01-17T01:59:41.202Z,939.18
2023-01-17T02:02:07.566Z,939.41
2023-01-17T02:04:33.936Z,939.15
2023-01-17T02:07:00.250Z,939.39
2023-01-17T02:09:26.665Z,939.40
2023-01-17T02:11:53.047Z,939.31
2023-01-17T02:14:21.595Z,938.95
2023-01-17T02:16:48.030Z,939.04
2023-01-17T02:19:14.365Z,939.37
2023-01-17T02:21:40.715Z,939.33
2023-01-17T02:24:07.079Z,939.31
2023-01-17T02:26:33.515Z,939.40
2023-01-17T02:28:59.864Z,939.11
2023-01-17T02:31:26.278Z,938.97
2023-01-17T02:33:52.629Z,939.35
2023-01-17T02:36:19.025Z,938.92
2023-01-17T02:38:45.417Z,938.97
2023-01-17T02:41:11.729Z,939.35
2023-01-17T02:43:38.105Z,939.23
2023-01-17T02:46:04.460Z,939.24
2023-01-17T02:48:30.819Z,939.19
2023-01-17T02:50:57.118Z,939.15
2023-01-17T02:53:23.489Z,939.03
2023-01-17T02:55:49.841Z,939.15
2023-01-17T02:58:16.272Z,938.95
2023-01-17T03:00:42.630Z,938.77
2023-01-17T03:03:08.966Z,938.80
2023-01-17T03:05:35.365Z,939.04
2023-01-17T03:08:01.742Z,939.01
2023-01-17T03:10:28.044Z,938.95
2023-01-17T03:12:54.431Z,938.67
2023-01-17T03:15:20.749Z,938.68
2023-01-17T03:17:47.061Z,938.72
2023-01-17T03:20:13.378Z,938.68
2023-01-17T03:22:39.723Z,938.77
2023-01-17T03:25:06.017Z,938.64
2023-01-17T03:27:32.360Z,938.92
2023-01-17T03:29:58.729Z,938.72
2023-01-17T03:32:25.052Z,938.64
2023-01-17T03:34:51.464Z,938.83
2023-01-17T03:37:17.926Z,939.03
2023-01-17T03:39:44.367Z,938.81
2023-01-17T03:42:10.640Z,938.82
2023-01-17T03:44:37.062Z,938.83
2023-01-17T03:47:03.458Z,938.71
2023-01-17T03:49:29.759Z,938.95
2023-01-17T03:51:56.075Z,939.03
2023-01-17T03:54:22.484Z,938.99
2023-01-17T03:56:48.789Z,938.74
2023-01-17T03:59:15.193Z,938.80
2023-01-17T04:01:41.789Z,938.76
2023-01-17T04:04:07.898Z,938.92
2023-01-17T04:06:34.252Z,938.85
2023-01-17T04:09:00.639Z,938.50
2023-01-17T04:11:26.949Z,938.63
2023-01-17T04:13:53.294Z,938.81
2023-01-17T04:16:20.175Z,939.19
2023-01-17T04:18:46.503Z,939.00
2023-01-17T04:21:12.819Z,939.37
2023-01-17T04:23:39.233Z,939.26
2023-01-17T04:26:05.533Z,939.19
2023-01-17T04:28:31.943Z,939.54
2023-01-17T04:30:58.402Z,939.33
2023-01-17T04:33:24.709Z,939.40
2023-01-17T04:35:51.113Z,938.94
2023-01-17T04:38:17.526Z,939.04
2023-01-17T04:40:43.958Z,939.23
2023-01-17T04:43:10.355Z,939.16
2023-01-17T04:45:36.701Z,939.02
2023-01-17T04:48:03.095Z,939.23
2023-01-17T04:50:29.411Z,939.31
2023-01-17T04:52:55.774Z,939.55
2023-01-17T04:55:22.157Z,939.30
2023-01-17T04:57:48.468Z,939.26
2023-01-17T05:00:14.861Z,939.05
2023-01-17T05:02:41.356Z,939.22
2023-01-17T05:05:07.710Z,939.55
2023-01-17T05:07:35.741Z,939.45
2023-01-17T05:10:00.431Z,939.47
2023-01-17T05:12:26.800Z,939.52
2023-01-17T05:14:53.151Z,939.69
2023-01-17T05:17:19.551Z,939.50
2023-01-17T05:19:45.854Z,939.45
2023-01-17T05:22:12.261Z,939.45
2023-01-17T05:24:38.577Z,939.74
2023-01-17T05:27:04.950Z,939.80
2023-01-17T05:29:31.280Z,939.37
2023-01-17T05:31:57.715Z,939.52
2023-01-17T05:34:24.072Z,939.51
2023-01-17T05:36:50.427Z,939.52
2023-01-17T05:39:16.843Z,939.49
2023-01-17T05:41:43.165Z,939.53
2023-01-17T05:44:09.610Z,939.43
2023-01-17T05:46:36.091Z,939.05
2023-01-17T05:49:02.408Z,939.40
2023-01-17T05:51:28.846Z,939.13
2023-01-17T05:53:55.193Z,939.16
2023-01-17T05:56:21.621Z,939.18
2023-01-17T05:58:47.935Z,939.03
2023-01-17T06:01:14.357Z,939.02
2023-01-17T06:03:40.689Z,938.65
2023-01-17T06:06:07.077Z,938.93
2023-01-17T06:08:33.403Z,939.14
2023-01-17T06:10:59.782Z,938.53
2023-01-17T06:13:26.156Z,938.62
2023-01-17T06:15:52.590Z,938.86
2023-01-17T06:18:19.115Z,938.72
2023-01-17T06:20:45.471Z,938.75
2023-01-17T06:23:11.900Z,938.74
2023-01-17T06:25:38.325Z,938.77
2023-01-17T06:28:04.657Z,938.76
2023-01-17T06:30:31.083Z,938.92
2023-01-17T06:32:57.553Z,938.92
2023-01-17T06:35:23.913Z,939.12
2023-01-17T06:37:50.319Z,939.23
2023-01-17T06:40:16.671Z,939.21
2023-01-17T06:42:42.984Z,939.00
2023-01-17T06:45:09.359Z,939.18
2023-01-17T06:47:35.765Z,939.39
2023-01-17T06:50:02.205Z,939.26
2023-01-17T06:52:28.516Z,939.35
2023-01-17T06:54:54.921Z,939.34
2023-01-17T06:57:21.331Z,939.30
2023-01-17T06:59:47.802Z,939.48
2023-01-17T07:02:14.128Z,939.30
2023-01-17T07:04:40.450Z,939.55
2023-01-17T07:07:06.815Z,939.51
2023-01-17T07:09:33.156Z,939.43
2023-01-17T07:11:59.492Z,939.35
2023-01-17T07:14:25.928Z,939.16
2023-01-17T07:16:52.304Z,939.10
2023-01-17T07:19:18.616Z,939.42
2023-01-17T07:21:45.028Z,939.17
2023-01-17T07:24:11.474Z,939.24
2023-01-17T07:26:37.827Z,939.26
2023-01-17T07:29:04.194Z,939.60
2023-01-17T07:31:30.652Z,939.18
2023-01-17T07:33:57.170Z,939.23
2023-01-17T07:36:23.562Z,939.40
2023-01-17T07:38:49.985Z,939.84
2023-01-17T07:41:16.353Z,939.62
2023-01-17T07:43:42.753Z,939.39
2023-01-17T07:46:09.122Z,939.47
2023-01-17T07:48:38.032Z,939.35
2023-01-17T07:51:04.459Z,939.36
2023-01-17T07:53:30.827Z,939.43
2023-01-17T07:55:57.229Z,939.43
2023-01-17T07:58:23.647Z,939.54
2023-01-17T08:00:50.106Z,939.45
2023-01-17T08:03:16.343Z,939.44
2023-01-17T08:05:42.717Z,939.41
2023-01-17T08:08:09.059Z,939.43
2023-01-17T08:10:35.382Z,939.43
2023-01-17T08:13:01.755Z,939.47
2023-01-17T08:15:28.166Z,939.41
2023-01-17T08:17:54.588Z,939.43
2023-01-17T08:20:21.029Z,939.53
2023-01-17T08:22:47.502Z,939.59
2023-01-17T08:25:13.853Z,939.65
2023-01-17T08:27:40.221Z,939.59
2023-01-17T08:30:06.585Z,939.68
2023-01-17T08:32:32.904Z,939.66
2023-01-17T08:34:59.255Z,939.62
2023-01-17T08:37:25.611Z,939.76
2023-01-17T08:39:51.991Z,939.77
2023-01-17T08:42:18.305Z,939.77
2023-01-17T08:44:44.758Z,939.92
2023-01-17T08:47:11.128Z,939.84
2023-01-17T08:49:37.547Z,939.81
2023-01-17T08:52:03.853Z,939.83
2023-01-17T08:54:30.297Z,939.90
2023-01-17T08:56:56.660Z,939.67
2023-01-17T08:59:23.016Z,939.76
2023-01-17T09:01:49.523Z,939.82
2023-01-17T09:04:15.755Z,939.73
2023-01-17T09:06:42.142Z,939.76
2023-01-17T09:09:08.519Z,939.74
2023-01-17T09:11:34.976Z,939.82
2023-01-17T09:14:01.344Z,939.71
2023-01-17T09:16:27.753Z,939.75
2023-01-17T09:18:54.394Z,939.70
2023-01-17T09:21:20.743Z,939.59
2023-01-17T09:23:47.151Z,939.61
2023-01-17T09:26:13.557Z,939.47
2023-01-17T09:28:39.870Z,939.47
2023-01-17T09:31:06.260Z,939.48
2023-01-17T09:33:32.638Z,939.59
2023-01-17T09:35:59.050Z,939.61
2023-01-17T09:38:25.528Z,939.43
2023-01-17T09:40:51.879Z,939.38
2023-01-17T09:43:18.216Z,939.22
2023-01-17T09:45:44.593Z,939.25
2023-01-17T09:48:11.523Z,939.26
2023-01-17T09:50:37.845Z,939.25
2023-01-17T09:53:04.215Z,939.24
2023-01-17T09:55:30.626Z,939.28
2023-01-17T09:57:57.007Z,939.34
2023-01-17T10:00:23.566Z,939.46
2023-01-17T10:02:50.100Z,939.46
2023-01-17T10:05:16.437Z,939.62
2023-01-17T10:07:42.786Z,939.59
2023-01-17T10:10:09.162Z,939.52
2023-01-17T10:12:35.550Z,939.50
2023-01-17T10:15:01.927Z,939.47
2023-01-17T10:17:28.253Z,939.38
2023-01-17T10:19:54.663Z,939.47
2023-01-17T10:22:21.328Z,939.50
2023-01-17T10:24:47.838Z,939.60
2023-01-17T10:27:14.252Z,939.55
2023-01-17T10:29:40.605Z,939.48
2023-01-17T10:32:07.031Z,939.53
2023-01-17T10:34:33.381Z,939.45
2023-01-17T10:36:59.779Z,939.45
2023-01-17T10:39:26.144Z,939.49
2023-01-17T10:41:52.461Z,939.60
2023-01-17T10:44:18.783Z,939.49
2023-01-17T10:46:45.157Z,939.46
2023-01-17T10:49:11.476Z,939.35
2023-01-17T10:51:37.889Z,939.23
2023-01-17T10:54:04.425Z,939.24
2023-01-17T10:56:30.737Z,939.24
2023-01-17T10:58:57.052Z,939.17
2023-01-17T11:01:23.538Z,939.10
2023-01-17T11:03:49.821Z,939.14
2023-01-17T11:06:16.221Z,939.14
2023-01-17T11:08:42.536Z,939.03
2023-01-17T11:11:08.909Z,939.13
2023-01-17T11:13:35.319Z,938.92
2023-01-17T11:16:01.649Z,938.68
2023-01-17T11:18:28.051Z,938.70
2023-01-17T11:20:54.445Z,938.63
2023-01-17T11:23:20.876Z,938.65
2023-01-17T11:25:47.204Z,938.51
2023-01-17T11:28:16.347Z,938.67
2023-01-17T11:30:42.727Z,938.67
2023-01-17T11:33:09.076Z,938.24
2023-01-17T11:35:35.462Z,938.26
2023-01-17T11:38:01.873Z,938.23
2023-01-17T11:40:28.255Z,938.06
2023-01-17T11:42:54.623Z,938.02
2023-01-17T11:45:21.026Z,937.99
2023-01-17T11:47:47.384Z,938.08
2023-01-17T11:50:13.808Z,938.12
2023-01-17T11:52:40.214Z,938.08
2023-01-17T11:55:06.519Z,937.99
2023-01-17T11:57:33.031Z,937.78
2023-01-17T11:59:59.339Z,937.93
2023-01-17T12:02:25.654Z,937.89
2023-01-17T12:04:52.236Z,937.87
2023-01-17T12:07:18.589Z,937.79
2023-01-17T12:09:44.918Z,937.99
2023-01-17T12:12:11.644Z,937.89
2023-01-17T12:14:38.013Z,937.86
2023-01-17T12:17:04.413Z,937.79
2023-01-17T12:19:30.790Z,937.72
2023-01-17T12:21:57.353Z,937.77
2023-01-17T12:24:23.745Z,937.76
2023-01-17T12:26:50.297Z,937.49
2023-01-17T12:29:16.706Z,937.53
2023-01-17T12:31:43.191Z,937.62
2023-01-17T12:34:09.548Z,937.47
2023-01-17T12:36:36.095Z,937.44
2023-01-17T12:39:02.521Z,937.57
2023-01-17T12:41:28.873Z,937.52
2023-01-17T12:43:55.188Z,937.61
2023-01-17T12:46:21.581Z,937.67
2023-01-17T12:48:47.873Z,937.54
2023-01-17T12:51:14.249Z,937.57
2023-01-17T12:53:40.665Z,937.54
2023-01-17T12:56:07.074Z,937.46
2023-01-17T12:58:33.455Z,937.43
2023-01-17T13:01:00.075Z,937.46
2023-01-17T13:03:26.162Z,937.51
2023-01-17T13:05:52.516Z,937.58
2023-01-17T13:08:18.857Z,937.55
2023-01-17T13:10:45.202Z,937.54
2023-01-17T13:13:11.611Z,937.50
2023-01-17T13:15:38.020Z,937.71
2023-01-17T13:18:04.466Z,937.62
2023-01-17T13:20:30.881Z,937.68
2023-01-17T13:22:57.278Z,937.75
2023-01-17T13:25:23.678Z,937.41
2023-01-17T13:27:50.035Z,937.50
2023-01-17T13:30:16.476Z,937.57
2023-01-17T13:32:42.998Z,937.81
2023-01-17T13:35:09.385Z,937.75
2023-01-17T13:37:35.777Z,937.55
2023-01-17T13:40:02.800Z,937.61
2023-01-17T13:42:29.199Z,937.59
2023-01-17T13:44:55.528Z,937.58
2023-01-17T13:47:23.763Z,937.58
2023-01-17T13:49:48.254Z,937.49
2023-01-17T13:52:17.101Z,937.53
2023-01-17T13:54:43.473Z,937.74
2023-01-17T13:57:09.872Z,937.55
2023-01-17T13:59:36.343Z,937.68
2023-01-17T14:02:02.750Z,937.95
2023-01-17T14:04:29.072Z,937.72
2023-01-17T14:06:55.473Z,937.50
2023-01-17T14:09:21.804Z,937.65
2023-01-17T14:11:48.203Z,937.72
2023-01-17T14:14:14.644Z,937.59
2023-01-17T14:16:41.037Z,937.66
2023-01-17T14:19:07.352Z,937.87
2023-01-17T14:21:33.796Z,937.60
2023-01-17T14:24:00.235Z,937.53
2023-01-17T14:26:26.548Z,937.40
2023-01-17T14:28:52.908Z,937.61
2023-01-17T14:31:19.368Z,937.50
2023-01-17T14:33:45.737Z,937.69
2023-01-17T14:36:12.076Z,937.38
2023-01-17T14:38:38.465Z,937.75
2023-01-17T14:41:04.841Z,937.47
2023-01-17T14:43:31.247Z,937.32
2023-01-17T14:45:57.728Z,937.43
2023-01-17T14:48:24.030Z,937.65
2023-01-17T14:50:50.514Z,937.50
2023-01-17T14:53:16.930Z,937.49
2023-01-17T14:55:43.365Z,937.34
2023-01-17T14:58:09.774Z,937.46
2023-01-17T15:00:36.182Z,937.63
2023-01-17T15:03:02.602Z,937.59
2023-01-17T15:05:28.975Z,937.64
2023-01-17T15:07:55.429Z,937.97
2023-01-17T15:10:21.844Z,937.92
2023-01-17T15:12:48.276Z,937.90
2023-01-17T15:15:14.578Z,937.57
2023-01-17T15:17:40.908Z,937.70
2023-01-17T15:20:07.299Z,937.74
2023-01-17T15:22:33.609Z,937.76
2023-01-17T15:24:59.935Z,937.86
2023-01-17T15:27:26.277Z,937.98
2023-01-17T15:29:52.697Z,937.84
2023-01-17T15:32:19.037Z,937.70
2023-01-17T15:34:45.368Z,937.82
2023-01-17T15:37:11.734Z,938.00
2023-01-17T15:39:38.092Z,937.85
2023-01-17T15:42:05.635Z,937.85
2023-01-17T15:44:46.887Z,937.89
2023-01-17T15:46:58.338Z,938.23
2023-01-17T15:49:24.702Z,937.97
2023-01-17T15:51:51.074Z,937.93
2023-01-17T15:54:17.481Z,938.07
2023-01-17T15:56:43.905Z,938.07
2023-01-17T15:59:10.306Z,937.94
2023-01-17T16:01:36.780Z,937.87
2023-01-17T16:04:03.025Z,937.83
2023-01-17T16:06:29.362Z,937.96
2023-01-17T16:08:55.824Z,937.93
2023-01-17T16:11:22.182Z,937.99
2023-01-17T16:13:48.595Z,937.86
2023-01-17T16:16:15.126Z,937.81
2023-01-17T16:18:41.324Z,937.81
2023-01-17T16:21:07.724Z,937.90
2023-01-17T16:23:34.099Z,938.04
2023-01-17T16:26:00.453Z,937.94
2023-01-17T16:28:26.837Z,938.11
2023-01-17T16:30:53.302Z,938.15
2023-01-17T16:33:19.616Z,937.96
2023-01-17T16:35:46.029Z,937.98
2023-01-17T16:38:12.787Z,938.07
2023-01-17T16:40:39.150Z,938.02
2023-01-17T16:43:05.473Z,938.20
2023-01-17T16:45:31.838Z,938.02
2023-01-17T16:47:58.260Z,937.93
2023-01-17T16:50:24.670Z,937.66
2023-01-17T16:52:51.023Z,937.56
2023-01-17T16:55:17.406Z,937.74
2023-01-17T16:57:43.799Z,937.75
2023-01-17T17:00:10.176Z,937.70
2023-01-17T17:02:36.552Z,937.71
2023-01-17T17:05:03.152Z,937.79
2023-01-17T17:07:29.511Z,937.71
2023-01-17T17:09:55.843Z,937.80
2023-01-17T17:12:22.264Z,937.66
2023-01-17T17:14:48.571Z,937.50
2023-01-17T17:17:14.968Z,937.70
2023-01-17T17:19:41.322Z,937.56
2023-01-17T17:22:07.699Z,937.29
2023-01-17T17:24:34.327Z,937.58
2023-01-17T17:27:00.767Z,937.78
2023-01-17T17:29:27.189Z,937.62
2023-01-17T17:31:53.810Z,937.29
2023-01-17T17:34:20.177Z,937.27
2023-01-17T17:36:46.566Z,937.25
2023-01-17T17:39:13.118Z,937.38
2023-01-17T17:41:39.523Z,937.52
2023-01-17T17:44:05.968Z,937.34
2023-01-17T17:46:32.458Z,937.17
2023-01-17T17:48:58.808Z,937.36
2023-01-17T17:51:25.176Z,937.38
2023-01-17T17:53:51.903Z,937.14
2023-01-17T17:56:18.290Z,937.06
2023-01-17T17:58:46.182Z,936.94
2023-01-17T18:01:11.165Z,936.76
2023-01-17T18:03:37.711Z,936.76
2023-01-17T18:06:04.099Z,936.71
2023-01-17T18:08:30.510Z,936.81
2023-01-17T18:10:56.868Z,936.76
2023-01-17T18:13:23.227Z,936.53
2023-01-17T18:15:49.631Z,936.52
2023-01-17T18:18:16.008Z,936.56
2023-01-17T18:20:42.569Z,936.75
2023-01-17T18:23:08.924Z,936.66
2023-01-17T18:25:36.447Z,936.66
2023-01-17T18:28:01.642Z,936.69
2023-01-17T18:30:29.174Z,936.58
2023-01-17T18:32:55.526Z,936.72
2023-01-17T18:35:21.969Z,936.85
2023-01-17T18:37:48.361Z,936.74
2023-01-17T18:40:14.782Z,936.67
2023-01-17T18:42:41.269Z,936.88
2023-01-17T18:45:10.853Z,936.83
2023-01-17T18:47:38.662Z,936.67
2023-01-17T18:50:03.738Z,936.46
2023-01-17T18:52:30.085Z,936.54
2023-01-17T18:54:56.422Z,936.48
2023-01-17T18:57:22.859Z,936.55
2023-01-17T18:59:49.407Z,936.57
2023-01-17T19:02:15.809Z,936.62
2023-01-17T19:04:42.208Z,936.62
2023-01-17T19:07:09.365Z,936.57
2023-01-17T19:09:34.986Z,936.31
2023-01-17T19:12:01.470Z,936.41
2023-01-17T19:14:27.855Z,936.59
2023-01-17T19:16:54.264Z,936.79
2023-01-17T19:19:20.685Z,936.83
2023-01-17T19:21:47.050Z,936.76
2023-01-17T19:24:13.568Z,936.55
2023-01-17T19:26:39.975Z,936.35
2023-01-17T19:29:06.318Z,936.58
2023-01-17T19:31:32.738Z,936.56
2023-01-17T19:33:59.205Z,936.28
2023-01-17T19:36:25.581Z,936.41
2023-01-17T19:39:03.589Z,936.87
2023-01-17T19:41:18.322Z,936.75
2023-01-17T19:43:44.832Z,936.22
2023-01-17T19:46:11.168Z,936.45
2023-01-17T19:48:37.590Z,936.67
2023-01-17T19:51:03.987Z,936.69
2023-01-17T19:53:30.338Z,936.57
2023-01-17T19:55:56.723Z,936.69
2023-01-17T19:58:23.089Z,936.81
2023-01-17T20:00:49.524Z,936.66
2023-01-17T20:03:15.877Z,936.64
2023-01-17T20:05:42.247Z,936.48
2023-01-17T20:08:08.669Z,936.43
2023-01-17T20:10:35.534Z,936.55
2023-01-17T20:13:01.964Z,936.63
2023-01-17T20:15:28.343Z,936.64
2023-01-17T20:17:55.050Z,936.39
2023-01-17T20:20:21.170Z,936.25
2023-01-17T20:22:47.522Z,936.36
2023-01-17T20:25:13.891Z,936.57
2023-01-17T20:27:40.379Z,936.41
2023-01-17T20:30:19.260Z,936.55
2023-01-17T20:32:33.105Z,936.40
2023-01-17T20:34:59.516Z,936.01
2023-01-17T20:37:25.929Z,936.12
2023-01-17T20:39:52.337Z,936.31
2023-01-17T20:42:18.767Z,936.52
2023-01-17T20:44:45.166Z,936.37
2023-01-17T20:47:11.550Z,936.34
2023-01-17T20:49:37.955Z,936.25
2023-01-17T20:52:06.128Z,936.50
2023-01-17T20:54:30.646Z,936.48
2023-01-17T20:56:57.083Z,936.26
2023-01-17T20:59:23.414Z,936.56
2023-01-17T21:01:49.859Z,936.53
2023-01-17T21:04:16.254Z,936.13
2023-01-17T21:06:42.615Z,936.23
2023-01-17T21:09:08.931Z,936.29
2023-01-17T21:11:35.356Z,936.17
2023-01-17T21:14:01.755Z,936.05
2023-01-17T21:16:28.124Z,936.03
2023-01-17T21:18:54.380Z,936.17
2023-01-17T21:21:20.846Z,936.08
2023-01-17T21:23:47.247Z,936.30
2023-01-17T21:26:13.609Z,936.34
2023-01-17T21:28:39.968Z,936.18
2023-01-17T21:31:06.499Z,936.13
2023-01-17T21:33:32.739Z,936.12
2023-01-17T21:35:59.149Z,936.16
2023-01-17T21:38:26.672Z,936.20
2023-01-17T21:40:53.046Z,936.28
2023-01-17T21:43:19.376Z,936.21
2023-01-17T21:45:45.942Z,936.18
2023-01-17T21:48:12.626Z,936.17
2023-01-17T21:50:39.060Z,936.20
2023-01-17T21:53:05.375Z,936.26
2023-01-17T21:55:31.739Z,936.20
2023-01-17T21:57:58.335Z,936.21
2023-01-17T22:00:24.528Z,936.20
2023-01-17T22:02:50.886Z,936.18
2023-01-17T22:05:17.222Z,936.25
2023-01-17T22:07:43.611Z,936.32
2023-01-17T22:10:10.010Z,936.15
2023-01-17T22:12:36.376Z,936.05
2023-01-17T22:15:02.730Z,935.97
2023-01-17T22:17:29.056Z,936.02
2023-01-17T22:19:55.429Z,936.04
2023-01-17T22:22:21.834Z,936.06
2023-01-17T22:24:48.193Z,936.05
2023-01-17T22:27:14.542Z,935.94
2023-01-17T22:29:40.920Z,935.96
2023-01-17T22:32:07.330Z,936.22
2023-01-17T22:34:33.656Z,936.22
2023-01-17T22:37:00.327Z,936.13
2023-01-17T22:39:26.687Z,936.21
2023-01-17T22:41:53.079Z,936.24
2023-01-17T22:44:19.531Z,936.20
2023-01-17T22:46:45.939Z,936.26
2023-01-17T22:49:12.266Z,936.25
2023-01-17T22:51:38.708Z,936.08
2023-01-17T22:54:05.071Z,936.11
2023-01-17T22:56:31.487Z,936.09
2023-01-17T22:58:57.844Z,936.20
2023-01-17T23:01:24.378Z,936.01
2023-01-17T23:03:50.775Z,935.92
2023-01-17T23:06:17.051Z,936.16
2023-01-17T23:08:43.366Z,936.15
2023-01-17T23:11:09.798Z,936.11
2023-01-17T23:13:36.253Z,936.11
2023-01-17T23:16:02.761Z,936.04
2023-01-17T23:18:29.031Z,936.26
2023-01-17T23:20:55.388Z,936.14
2023-01-17T23:23:21.774Z,935.76
2023-01-17T23:25:48.176Z,935.85
2023-01-17T23:28:14.515Z,935.84
2023-01-17T23:30:40.872Z,935.73
2023-01-17T23:33:07.231Z,935.68
2023-01-17T23:35:33.646Z,935.56
2023-01-17T23:38:00.041Z,935.61
2023-01-17T23:40:26.412Z,935.69
2023-01-17T23:42:52.789Z,935.82
2023-01-17T23:45:19.209Z,935.77
2023-01-17T23:47:45.570Z,935.65
2023-01-17T23:50:11.927Z,935.67
2023-01-17T23:52:38.289Z,935.65
2023-01-17T23:55:04.660Z,935.75
2023-01-17T23:57:31.039Z,935.72
2023-01-17T23:59:57.401Z,935.69
